sensor_id;sensor_type;location;lat;lon;timestamp;temperature;humidity
33105;DHT22;19476;51.448;6.674;2023-06-10T00:01:42;27.50;36.20
33105;DHT22;19476;51.448;6.674;2023-06-10T00:04:08;27.50;36.30
33105;DHT22;19476;51.448;6.674;2023-06-10T00:06:34;27.40;36.30
33105;DHT22;19476;51.448;6.674;2023-06-10T00:09:06;27.40;36.50
33105;DHT22;19476;51.448;6.674;2023-06-10T00:11:35;27.30;36.50
33105;DHT22;19476;51.448;6.674;2023-06-10T00:14:01;27.30;36.50
33105;DHT22;19476;51.448;6.674;2023-06-10T00:16:27;27.30;36.60
33105;DHT22;19476;51.448;6.674;2023-06-10T00:18:53;27.30;36.60
33105;DHT22;19476;51.448;6.674;2023-06-10T00:21:22;27.20;36.70
33105;DHT22;19476;51.448;6.674;2023-06-10T00:23:47;27.20;36.90
33105;DHT22;19476;51.448;6.674;2023-06-10T00:26:14;27.30;36.90
33105;DHT22;19476;51.448;6.674;2023-06-10T00:28:39;27.20;36.80
33105;DHT22;19476;51.448;6.674;2023-06-10T00:31:05;27.20;36.90
33105;DHT22;19476;51.448;6.674;2023-06-10T00:33:31;27.20;37.00
33105;DHT22;19476;51.448;6.674;2023-06-10T00:35:57;27.20;37.00
33105;DHT22;19476;51.448;6.674;2023-06-10T00:38:22;27.20;37.10
33105;DHT22;19476;51.448;6.674;2023-06-10T00:40:48;27.10;37.10
33105;DHT22;19476;51.448;6.674;2023-06-10T00:43:14;27.10;37.10
33105;DHT22;19476;51.448;6.674;2023-06-10T00:45:40;27.10;37.30
33105;DHT22;19476;51.448;6.674;2023-06-10T00:48:06;27.10;37.40
33105;DHT22;19476;51.448;6.674;2023-06-10T00:50:33;27.10;37.50
33105;DHT22;19476;51.448;6.674;2023-06-10T00:53:00;27.00;37.40
33105;DHT22;19476;51.448;6.674;2023-06-10T00:55:26;27.00;37.50
33105;DHT22;19476;51.448;6.674;2023-06-10T00:57:53;27.00;37.70
33105;DHT22;19476;51.448;6.674;2023-06-10T01:00:19;27.00;37.80
33105;DHT22;19476;51.448;6.674;2023-06-10T01:02:45;26.90;37.70
33105;DHT22;19476;51.448;6.674;2023-06-10T01:05:11;26.90;37.80
33105;DHT22;19476;51.448;6.674;2023-06-10T01:08:00;26.90;37.90
33105;DHT22;19476;51.448;6.674;2023-06-10T01:10:32;26.90;38.40
33105;DHT22;19476;51.448;6.674;2023-06-10T01:13:01;26.80;38.20
33105;DHT22;19476;51.448;6.674;2023-06-10T01:15:33;26.80;38.10
33105;DHT22;19476;51.448;6.674;2023-06-10T01:18:04;26.80;38.30
33105;DHT22;19476;51.448;6.674;2023-06-10T01:20:35;26.70;38.60
33105;DHT22;19476;51.448;6.674;2023-06-10T01:23:02;26.70;38.40
33105;DHT22;19476;51.448;6.674;2023-06-10T01:25:29;26.70;38.40
33105;DHT22;19476;51.448;6.674;2023-06-10T01:28:14;26.60;38.40
33105;DHT22;19476;51.448;6.674;2023-06-10T01:33:31;26.50;38.50
33105;DHT22;19476;51.448;6.674;2023-06-10T01:35:59;26.50;39.50
33105;DHT22;19476;51.448;6.674;2023-06-10T01:38:27;26.50;38.70
33105;DHT22;19476;51.448;6.674;2023-06-10T01:40:56;26.40;38.70
33105;DHT22;19476;51.448;6.674;2023-06-10T01:43:23;26.40;38.80
33105;DHT22;19476;51.448;6.674;2023-06-10T01:45:49;26.40;38.80
33105;DHT22;19476;51.448;6.674;2023-06-10T01:48:15;26.30;39.40
33105;DHT22;19476;51.448;6.674;2023-06-10T01:50:40;26.30;39.00
33105;DHT22;19476;51.448;6.674;2023-06-10T01:53:06;26.30;39.00
33105;DHT22;19476;51.448;6.674;2023-06-10T01:55:32;26.30;39.10
33105;DHT22;19476;51.448;6.674;2023-06-10T01:57:58;26.30;39.10
33105;DHT22;19476;51.448;6.674;2023-06-10T02:00:23;26.20;39.10
33105;DHT22;19476;51.448;6.674;2023-06-10T02:02:49;26.20;39.20
33105;DHT22;19476;51.448;6.674;2023-06-10T02:05:15;26.20;39.30
33105;DHT22;19476;51.448;6.674;2023-06-10T02:07:41;26.20;39.40
33105;DHT22;19476;51.448;6.674;2023-06-10T02:10:07;26.10;39.40
33105;DHT22;19476;51.448;6.674;2023-06-10T02:12:33;26.10;39.50
33105;DHT22;19476;51.448;6.674;2023-06-10T02:14:59;26.10;39.50
33105;DHT22;19476;51.448;6.674;2023-06-10T02:17:25;26.10;39.60
33105;DHT22;19476;51.448;6.674;2023-06-10T02:19:51;26.00;39.60
33105;DHT22;19476;51.448;6.674;2023-06-10T02:22:21;26.00;39.70
33105;DHT22;19476;51.448;6.674;2023-06-10T02:24:47;26.00;39.90
33105;DHT22;19476;51.448;6.674;2023-06-10T02:27:13;26.00;39.90
33105;DHT22;19476;51.448;6.674;2023-06-10T02:29:39;26.00;40.00
33105;DHT22;19476;51.448;6.674;2023-06-10T02:32:05;26.00;40.00
33105;DHT22;19476;51.448;6.674;2023-06-10T02:34:31;26.00;40.20
33105;DHT22;19476;51.448;6.674;2023-06-10T02:36:56;25.90;40.20
33105;DHT22;19476;51.448;6.674;2023-06-10T02:39:22;25.90;40.30
33105;DHT22;19476;51.448;6.674;2023-06-10T02:41:48;25.90;40.40
33105;DHT22;19476;51.448;6.674;2023-06-10T02:44:14;25.90;40.50
33105;DHT22;19476;51.448;6.674;2023-06-10T02:46:39;25.90;40.50
33105;DHT22;19476;51.448;6.674;2023-06-10T02:49:05;25.80;40.50
33105;DHT22;19476;51.448;6.674;2023-06-10T02:51:31;25.80;40.70
33105;DHT22;19476;51.448;6.674;2023-06-10T02:53:56;25.80;40.70
33105;DHT22;19476;51.448;6.674;2023-06-10T02:56:22;25.80;40.80
33105;DHT22;19476;51.448;6.674;2023-06-10T02:58:48;25.70;40.80
33105;DHT22;19476;51.448;6.674;2023-06-10T03:01:15;25.70;40.90
33105;DHT22;19476;51.448;6.674;2023-06-10T03:03:40;25.70;41.00
33105;DHT22;19476;51.448;6.674;2023-06-10T03:06:11;25.70;41.00
33105;DHT22;19476;51.448;6.674;2023-06-10T03:08:38;25.60;41.20
33105;DHT22;19476;51.448;6.674;2023-06-10T03:11:04;25.60;41.20
33105;DHT22;19476;51.448;6.674;2023-06-10T03:13:30;25.60;41.20
33105;DHT22;19476;51.448;6.674;2023-06-10T03:15:56;25.60;41.30
33105;DHT22;19476;51.448;6.674;2023-06-10T03:18:25;25.60;41.30
33105;DHT22;19476;51.448;6.674;2023-06-10T03:20:51;25.60;41.40
33105;DHT22;19476;51.448;6.674;2023-06-10T03:23:17;25.50;41.30
33105;DHT22;19476;51.448;6.674;2023-06-10T03:25:44;25.60;41.50
33105;DHT22;19476;51.448;6.674;2023-06-10T03:28:10;25.50;41.50
33105;DHT22;19476;51.448;6.674;2023-06-10T03:30:36;25.50;41.50
33105;DHT22;19476;51.448;6.674;2023-06-10T03:33:02;25.50;41.60
33105;DHT22;19476;51.448;6.674;2023-06-10T03:35:28;25.50;41.60
33105;DHT22;19476;51.448;6.674;2023-06-10T03:37:53;25.40;41.60
33105;DHT22;19476;51.448;6.674;2023-06-10T03:40:19;25.50;41.80
33105;DHT22;19476;51.448;6.674;2023-06-10T03:42:45;25.50;41.80
33105;DHT22;19476;51.448;6.674;2023-06-10T03:45:11;25.50;41.80
33105;DHT22;19476;51.448;6.674;2023-06-10T03:47:37;25.40;41.80
33105;DHT22;19476;51.448;6.674;2023-06-10T03:50:04;25.50;42.00
33105;DHT22;19476;51.448;6.674;2023-06-10T03:52:30;25.40;42.00
33105;DHT22;19476;51.448;6.674;2023-06-10T03:54:56;25.40;42.00
33105;DHT22;19476;51.448;6.674;2023-06-10T03:57:22;25.40;42.00
33105;DHT22;19476;51.448;6.674;2023-06-10T03:59:48;25.40;42.10
33105;DHT22;19476;51.448;6.674;2023-06-10T04:02:13;25.40;42.10
33105;DHT22;19476;51.448;6.674;2023-06-10T04:04:39;25.40;42.10
33105;DHT22;19476;51.448;6.674;2023-06-10T04:07:05;25.40;42.20
33105;DHT22;19476;51.448;6.674;2023-06-10T04:09:31;25.40;42.30
33105;DHT22;19476;51.448;6.674;2023-06-10T04:11:57;25.30;42.20
33105;DHT22;19476;51.448;6.674;2023-06-10T04:14:23;25.30;42.30
33105;DHT22;19476;51.448;6.674;2023-06-10T04:16:50;25.30;42.40
33105;DHT22;19476;51.448;6.674;2023-06-10T04:19:16;25.30;42.40
33105;DHT22;19476;51.448;6.674;2023-06-10T04:21:42;25.30;42.40
33105;DHT22;19476;51.448;6.674;2023-06-10T04:24:08;25.20;42.40
33105;DHT22;19476;51.448;6.674;2023-06-10T04:26:35;25.30;42.60
33105;DHT22;19476;51.448;6.674;2023-06-10T04:29:01;25.30;42.70
33105;DHT22;19476;51.448;6.674;2023-06-10T04:31:27;25.30;42.50
33105;DHT22;19476;51.448;6.674;2023-06-10T04:33:53;25.20;42.50
33105;DHT22;19476;51.448;6.674;2023-06-10T04:36:20;25.30;42.60
33105;DHT22;19476;51.448;6.674;2023-06-10T04:38:45;25.30;42.60
33105;DHT22;19476;51.448;6.674;2023-06-10T04:41:12;25.30;42.50
33105;DHT22;19476;51.448;6.674;2023-06-10T04:43:38;25.30;42.40
33105;DHT22;19476;51.448;6.674;2023-06-10T04:46:04;25.30;42.20
33105;DHT22;19476;51.448;6.674;2023-06-10T04:48:30;25.30;42.20
33105;DHT22;19476;51.448;6.674;2023-06-10T04:50:56;25.20;42.00
33105;DHT22;19476;51.448;6.674;2023-06-10T04:53:22;25.20;42.00
33105;DHT22;19476;51.448;6.674;2023-06-10T04:55:48;25.20;41.90
33105;DHT22;19476;51.448;6.674;2023-06-10T04:58:14;25.20;41.90
33105;DHT22;19476;51.448;6.674;2023-06-10T05:00:41;25.20;41.90
33105;DHT22;19476;51.448;6.674;2023-06-10T05:03:07;25.20;41.90
33105;DHT22;19476;51.448;6.674;2023-06-10T05:05:33;25.10;41.80
33105;DHT22;19476;51.448;6.674;2023-06-10T05:07:59;25.10;41.80
33105;DHT22;19476;51.448;6.674;2023-06-10T05:10:25;25.10;41.90
33105;DHT22;19476;51.448;6.674;2023-06-10T05:12:51;25.10;41.80
33105;DHT22;19476;51.448;6.674;2023-06-10T05:15:17;25.20;41.80
33105;DHT22;19476;51.448;6.674;2023-06-10T05:17:43;25.20;41.70
33105;DHT22;19476;51.448;6.674;2023-06-10T05:20:09;25.20;41.60
33105;DHT22;19476;51.448;6.674;2023-06-10T05:22:35;25.30;41.60
33105;DHT22;19476;51.448;6.674;2023-06-10T05:25:01;25.30;41.50
33105;DHT22;19476;51.448;6.674;2023-06-10T05:27:26;25.30;41.40
33105;DHT22;19476;51.448;6.674;2023-06-10T05:29:52;25.30;41.40
33105;DHT22;19476;51.448;6.674;2023-06-10T05:32:18;25.40;41.30
33105;DHT22;19476;51.448;6.674;2023-06-10T05:34:44;25.30;41.20
33105;DHT22;19476;51.448;6.674;2023-06-10T05:37:10;25.50;41.30
33105;DHT22;19476;51.448;6.674;2023-06-10T05:39:36;25.50;41.20
33105;DHT22;19476;51.448;6.674;2023-06-10T05:42:08;25.50;41.10
33105;DHT22;19476;51.448;6.674;2023-06-10T05:44:34;25.60;40.90
33105;DHT22;19476;51.448;6.674;2023-06-10T05:47:00;25.60;40.90
33105;DHT22;19476;51.448;6.674;2023-06-10T05:49:26;25.70;40.80
33105;DHT22;19476;51.448;6.674;2023-06-10T05:51:52;25.80;40.80
33105;DHT22;19476;51.448;6.674;2023-06-10T05:54:18;25.80;40.60
33105;DHT22;19476;51.448;6.674;2023-06-10T05:56:44;25.80;40.50
33105;DHT22;19476;51.448;6.674;2023-06-10T05:59:10;25.90;40.30
33105;DHT22;19476;51.448;6.674;2023-06-10T06:01:36;26.00;40.20
33105;DHT22;19476;51.448;6.674;2023-06-10T06:04:02;26.00;40.10
33105;DHT22;19476;51.448;6.674;2023-06-10T06:06:28;26.10;40.00
33105;DHT22;19476;51.448;6.674;2023-06-10T06:08:53;26.10;39.80
33105;DHT22;19476;51.448;6.674;2023-06-10T06:11:19;26.10;39.90
33105;DHT22;19476;51.448;6.674;2023-06-10T06:13:45;26.10;39.70
33105;DHT22;19476;51.448;6.674;2023-06-10T06:16:11;26.20;39.70
33105;DHT22;19476;51.448;6.674;2023-06-10T06:18:36;26.20;40.10
33105;DHT22;19476;51.448;6.674;2023-06-10T06:21:02;26.20;39.50
33105;DHT22;19476;51.448;6.674;2023-06-10T06:23:28;26.30;39.60
33105;DHT22;19476;51.448;6.674;2023-06-10T06:25:54;26.30;39.30
33105;DHT22;19476;51.448;6.674;2023-06-10T06:28:19;26.40;39.30
33105;DHT22;19476;51.448;6.674;2023-06-10T06:30:46;26.40;39.20
33105;DHT22;19476;51.448;6.674;2023-06-10T06:33:13;26.50;39.20
33105;DHT22;19476;51.448;6.674;2023-06-10T07:06:31;25.50;40.20
33105;DHT22;19476;51.448;6.674;2023-06-10T07:08:57;26.30;39.40
33105;DHT22;19476;51.448;6.674;2023-06-10T07:11:23;26.50;38.90
33105;DHT22;19476;51.448;6.674;2023-06-10T07:13:49;26.70;38.60
33105;DHT22;19476;51.448;6.674;2023-06-10T07:16:15;26.90;38.40
33105;DHT22;19476;51.448;6.674;2023-06-10T07:18:40;27.00;38.30
33105;DHT22;19476;51.448;6.674;2023-06-10T07:21:06;27.10;38.20
33105;DHT22;19476;51.448;6.674;2023-06-10T07:23:32;27.10;38.00
33105;DHT22;19476;51.448;6.674;2023-06-10T07:25:58;27.20;38.00
33105;DHT22;19476;51.448;6.674;2023-06-10T07:28:24;27.30;37.70
33105;DHT22;19476;51.448;6.674;2023-06-10T07:30:49;27.30;37.50
33105;DHT22;19476;51.448;6.674;2023-06-10T07:33:16;27.40;37.60
33105;DHT22;19476;51.448;6.674;2023-06-10T07:35:42;27.50;37.60
33105;DHT22;19476;51.448;6.674;2023-06-10T07:38:08;27.50;37.50
33105;DHT22;19476;51.448;6.674;2023-06-10T07:40:34;27.60;37.40
33105;DHT22;19476;51.448;6.674;2023-06-10T07:43:00;27.70;37.40
33105;DHT22;19476;51.448;6.674;2023-06-10T07:45:26;27.70;37.20
33105;DHT22;19476;51.448;6.674;2023-06-10T07:47:52;27.80;37.20
33105;DHT22;19476;51.448;6.674;2023-06-10T07:50:17;27.90;37.00
33105;DHT22;19476;51.448;6.674;2023-06-10T07:52:43;28.00;37.00
33105;DHT22;19476;51.448;6.674;2023-06-10T07:55:09;28.00;36.90
33105;DHT22;19476;51.448;6.674;2023-06-10T07:57:35;28.10;36.80
33105;DHT22;19476;51.448;6.674;2023-06-10T08:00:03;28.10;36.60
33105;DHT22;19476;51.448;6.674;2023-06-10T08:02:30;28.20;36.30
33105;DHT22;19476;51.448;6.674;2023-06-10T08:04:56;28.30;36.10
33105;DHT22;19476;51.448;6.674;2023-06-10T08:07:21;28.30;36.00
33105;DHT22;19476;51.448;6.674;2023-06-10T08:09:47;28.40;36.10
33105;DHT22;19476;51.448;6.674;2023-06-10T08:12:13;28.40;36.00
33105;DHT22;19476;51.448;6.674;2023-06-10T08:14:39;28.50;35.80
33105;DHT22;19476;51.448;6.674;2023-06-10T08:17:05;28.50;35.80
33105;DHT22;19476;51.448;6.674;2023-06-10T08:19:32;28.60;35.80
33105;DHT22;19476;51.448;6.674;2023-06-10T08:21:58;28.60;35.70
33105;DHT22;19476;51.448;6.674;2023-06-10T08:24:23;28.70;35.60
33105;DHT22;19476;51.448;6.674;2023-06-10T08:26:49;28.80;35.70
33105;DHT22;19476;51.448;6.674;2023-06-10T08:29:15;28.80;35.60
33105;DHT22;19476;51.448;6.674;2023-06-10T08:31:44;28.90;35.50
33105;DHT22;19476;51.448;6.674;2023-06-10T08:34:10;29.00;35.40
33105;DHT22;19476;51.448;6.674;2023-06-10T08:36:37;29.00;35.40
33105;DHT22;19476;51.448;6.674;2023-06-10T08:39:03;29.10;35.40
33105;DHT22;19476;51.448;6.674;2023-06-10T08:41:30;29.10;35.30
33105;DHT22;19476;51.448;6.674;2023-06-10T08:44:15;29.20;35.10
33105;DHT22;19476;51.448;6.674;2023-06-10T08:46:45;29.40;34.80
33105;DHT22;19476;51.448;6.674;2023-06-10T08:49:17;29.40;35.20
33105;DHT22;19476;51.448;6.674;2023-06-10T08:51:43;29.40;35.00
33105;DHT22;19476;51.448;6.674;2023-06-10T08:54:18;29.50;35.10
33105;DHT22;19476;51.448;6.674;2023-06-10T08:56:48;29.60;35.00
33105;DHT22;19476;51.448;6.674;2023-06-10T08:59:15;29.70;35.00
33105;DHT22;19476;51.448;6.674;2023-06-10T09:01:43;29.70;34.80
33105;DHT22;19476;51.448;6.674;2023-06-10T09:04:10;29.80;34.90
33105;DHT22;19476;51.448;6.674;2023-06-10T09:06:37;29.80;34.70
33105;DHT22;19476;51.448;6.674;2023-06-10T09:09:06;29.90;34.70
33105;DHT22;19476;51.448;6.674;2023-06-10T09:11:33;30.00;34.60
33105;DHT22;19476;51.448;6.674;2023-06-10T09:13:59;30.00;34.50
33105;DHT22;19476;51.448;6.674;2023-06-10T09:16:25;30.10;34.50
33105;DHT22;19476;51.448;6.674;2023-06-10T09:18:51;30.20;34.60
33105;DHT22;19476;51.448;6.674;2023-06-10T09:21:24;30.20;34.50
33105;DHT22;19476;51.448;6.674;2023-06-10T09:23:50;30.30;34.60
33105;DHT22;19476;51.448;6.674;2023-06-10T09:26:16;30.30;34.50
33105;DHT22;19476;51.448;6.674;2023-06-10T09:28:44;30.40;34.50
33105;DHT22;19476;51.448;6.674;2023-06-10T09:31:10;30.50;34.40
33105;DHT22;19476;51.448;6.674;2023-06-10T09:33:38;30.50;34.30
33105;DHT22;19476;51.448;6.674;2023-06-10T09:36:05;30.60;34.20
33105;DHT22;19476;51.448;6.674;2023-06-10T09:38:32;30.70;33.80
33105;DHT22;19476;51.448;6.674;2023-06-10T09:40:59;30.70;34.00
33105;DHT22;19476;51.448;6.674;2023-06-10T09:43:40;30.80;34.00
33105;DHT22;19476;51.448;6.674;2023-06-10T09:46:06;30.90;33.50
33105;DHT22;19476;51.448;6.674;2023-06-10T09:48:37;31.00;34.00
33105;DHT22;19476;51.448;6.674;2023-06-10T09:51:09;31.10;33.40
33105;DHT22;19476;51.448;6.674;2023-06-10T09:53:35;31.10;33.20
33105;DHT22;19476;51.448;6.674;2023-06-10T09:56:01;31.20;33.20
33105;DHT22;19476;51.448;6.674;2023-06-10T09:58:38;31.20;33.10
33105;DHT22;19476;51.448;6.674;2023-06-10T10:01:07;31.30;33.10
33105;DHT22;19476;51.448;6.674;2023-06-10T10:03:33;31.40;33.10
33105;DHT22;19476;51.448;6.674;2023-06-10T10:06:00;31.50;33.00
33105;DHT22;19476;51.448;6.674;2023-06-10T10:08:26;31.50;32.80
33105;DHT22;19476;51.448;6.674;2023-06-10T10:10:52;31.60;32.80
33105;DHT22;19476;51.448;6.674;2023-06-10T10:13:18;31.70;32.80
33105;DHT22;19476;51.448;6.674;2023-06-10T10:15:45;31.70;32.80
33105;DHT22;19476;51.448;6.674;2023-06-10T10:18:14;31.70;32.70
33105;DHT22;19476;51.448;6.674;2023-06-10T10:20:50;31.90;32.20
33105;DHT22;19476;51.448;6.674;2023-06-10T10:23:25;31.90;32.10
33105;DHT22;19476;51.448;6.674;2023-06-10T10:25:53;32.00;31.90
33105;DHT22;19476;51.448;6.674;2023-06-10T10:28:24;32.10;32.10
33105;DHT22;19476;51.448;6.674;2023-06-10T10:30:54;32.20;31.80
33105;DHT22;19476;51.448;6.674;2023-06-10T10:33:31;32.20;31.50
33105;DHT22;19476;51.448;6.674;2023-06-10T10:36:00;32.30;31.00
33105;DHT22;19476;51.448;6.674;2023-06-10T10:38:28;32.40;30.90
33105;DHT22;19476;51.448;6.674;2023-06-10T10:40:55;32.40;30.50
33105;DHT22;19476;51.448;6.674;2023-06-10T10:43:25;32.50;30.70
33105;DHT22;19476;51.448;6.674;2023-06-10T10:46:00;32.60;30.60
33105;DHT22;19476;51.448;6.674;2023-06-10T10:48:31;32.60;30.10
33105;DHT22;19476;51.448;6.674;2023-06-10T10:50:59;32.70;30.20
33105;DHT22;19476;51.448;6.674;2023-06-10T10:53:25;32.70;30.00
33105;DHT22;19476;51.448;6.674;2023-06-10T10:56:07;32.80;30.30
33105;DHT22;19476;51.448;6.674;2023-06-10T10:58:34;32.90;30.00
33105;DHT22;19476;51.448;6.674;2023-06-10T11:01:12;32.90;30.20
33105;DHT22;19476;51.448;6.674;2023-06-10T11:03:45;33.10;29.70
33105;DHT22;19476;51.448;6.674;2023-06-10T11:06:17;33.30;30.00
33105;DHT22;19476;51.448;6.674;2023-06-10T11:11:24;33.30;29.70
33105;DHT22;19476;51.448;6.674;2023-06-10T11:16:42;33.50;29.30
33105;DHT22;19476;51.448;6.674;2023-06-10T11:19:09;33.60;29.60
33105;DHT22;19476;51.448;6.674;2023-06-10T11:22:07;33.70;29.70
33105;DHT22;19476;51.448;6.674;2023-06-10T11:24:33;33.80;29.40
33105;DHT22;19476;51.448;6.674;2023-06-10T11:27:16;33.90;29.30
33105;DHT22;19476;51.448;6.674;2023-06-10T11:32:33;34.10;29.30
33105;DHT22;19476;51.448;6.674;2023-06-10T11:34:59;34.20;29.30
33105;DHT22;19476;51.448;6.674;2023-06-10T11:37:26;34.30;29.30
33105;DHT22;19476;51.448;6.674;2023-06-10T11:39:55;34.40;29.10
33105;DHT22;19476;51.448;6.674;2023-06-10T11:42:22;34.40;29.00
33105;DHT22;19476;51.448;6.674;2023-06-10T11:44:53;34.50;29.10
33105;DHT22;19476;51.448;6.674;2023-06-10T11:47:19;34.60;28.70
33105;DHT22;19476;51.448;6.674;2023-06-10T11:49:58;34.70;28.30
33105;DHT22;19476;51.448;6.674;2023-06-10T11:52:30;34.80;28.40
33105;DHT22;19476;51.448;6.674;2023-06-10T11:55:04;34.80;28.30
33105;DHT22;19476;51.448;6.674;2023-06-10T11:57:34;34.90;28.30
33105;DHT22;19476;51.448;6.674;2023-06-10T12:00:07;35.00;28.30
33105;DHT22;19476;51.448;6.674;2023-06-10T12:02:33;35.10;28.10
33105;DHT22;19476;51.448;6.674;2023-06-10T12:05:16;35.10;28.00
33105;DHT22;19476;51.448;6.674;2023-06-10T12:08:09;35.20;27.70
33105;DHT22;19476;51.448;6.674;2023-06-10T12:10:40;35.20;27.50
33105;DHT22;19476;51.448;6.674;2023-06-10T12:13:10;35.30;27.20
33105;DHT22;19476;51.448;6.674;2023-06-10T12:15:36;35.40;27.60
33105;DHT22;19476;51.448;6.674;2023-06-10T12:18:02;35.40;27.40
33105;DHT22;19476;51.448;6.674;2023-06-10T12:20:32;35.50;27.30
33105;DHT22;19476;51.448;6.674;2023-06-10T12:23:09;35.60;27.10
33105;DHT22;19476;51.448;6.674;2023-06-10T12:25:35;35.70;27.00
33105;DHT22;19476;51.448;6.674;2023-06-10T12:28:02;35.80;27.10
33105;DHT22;19476;51.448;6.674;2023-06-10T12:30:28;35.90;27.10
33105;DHT22;19476;51.448;6.674;2023-06-10T12:32:55;36.00;26.90
33105;DHT22;19476;51.448;6.674;2023-06-10T12:35:30;36.10;26.90
33105;DHT22;19476;51.448;6.674;2023-06-10T12:38:03;36.20;26.40
33105;DHT22;19476;51.448;6.674;2023-06-10T12:40:32;36.20;26.70
33105;DHT22;19476;51.448;6.674;2023-06-10T12:42:59;36.30;26.80
33105;DHT22;19476;51.448;6.674;2023-06-10T12:45:33;36.40;26.80
33105;DHT22;19476;51.448;6.674;2023-06-10T12:50:32;36.60;26.40
33105;DHT22;19476;51.448;6.674;2023-06-10T12:53:02;36.70;26.50
33105;DHT22;19476;51.448;6.674;2023-06-10T12:55:28;36.80;26.20
33105;DHT22;19476;51.448;6.674;2023-06-10T12:57:54;36.90;26.40
33105;DHT22;19476;51.448;6.674;2023-06-10T13:00:21;37.00;26.20
33105;DHT22;19476;51.448;6.674;2023-06-10T13:02:51;37.10;26.30
33105;DHT22;19476;51.448;6.674;2023-06-10T13:05:18;37.20;25.90
33105;DHT22;19476;51.448;6.674;2023-06-10T13:07:47;37.30;26.20
33105;DHT22;19476;51.448;6.674;2023-06-10T13:10:14;37.40;25.50
33105;DHT22;19476;51.448;6.674;2023-06-10T13:12:40;37.50;25.90
33105;DHT22;19476;51.448;6.674;2023-06-10T13:15:07;37.60;25.90
33105;DHT22;19476;51.448;6.674;2023-06-10T13:17:33;37.60;25.80
33105;DHT22;19476;51.448;6.674;2023-06-10T13:20:03;37.80;25.60
33105;DHT22;19476;51.448;6.674;2023-06-10T13:22:31;37.90;25.70
33105;DHT22;19476;51.448;6.674;2023-06-10T13:25:02;37.90;25.60
33105;DHT22;19476;51.448;6.674;2023-06-10T13:27:29;38.00;25.20
33105;DHT22;19476;51.448;6.674;2023-06-10T13:29:54;38.10;25.40
33105;DHT22;19476;51.448;6.674;2023-06-10T13:32:21;38.10;25.30
33105;DHT22;19476;51.448;6.674;2023-06-10T13:34:47;38.20;25.30
33105;DHT22;19476;51.448;6.674;2023-06-10T13:37:13;38.30;25.20
33105;DHT22;19476;51.448;6.674;2023-06-10T13:39:39;38.40;25.00
33105;DHT22;19476;51.448;6.674;2023-06-10T13:42:05;38.40;24.70
33105;DHT22;19476;51.448;6.674;2023-06-10T13:44:33;38.40;24.60
33105;DHT22;19476;51.448;6.674;2023-06-10T13:47:02;38.50;24.90
33105;DHT22;19476;51.448;6.674;2023-06-10T13:49:29;38.50;24.80
33105;DHT22;19476;51.448;6.674;2023-06-10T13:51:57;38.60;24.80
33105;DHT22;19476;51.448;6.674;2023-06-10T13:54:26;38.60;24.70
33105;DHT22;19476;51.448;6.674;2023-06-10T13:56:53;38.70;24.80
33105;DHT22;19476;51.448;6.674;2023-06-10T13:59:22;38.70;24.60
33105;DHT22;19476;51.448;6.674;2023-06-10T14:01:47;38.80;24.40
33105;DHT22;19476;51.448;6.674;2023-06-10T14:04:13;38.80;24.80
33105;DHT22;19476;51.448;6.674;2023-06-10T14:06:39;38.80;24.40
33105;DHT22;19476;51.448;6.674;2023-06-10T14:09:05;38.80;24.40
33105;DHT22;19476;51.448;6.674;2023-06-10T14:11:31;38.80;24.50
33105;DHT22;19476;51.448;6.674;2023-06-10T14:14:00;38.80;24.70
33105;DHT22;19476;51.448;6.674;2023-06-10T14:16:26;39.00;24.70
33105;DHT22;19476;51.448;6.674;2023-06-10T14:18:54;39.00;24.30
33105;DHT22;19476;51.448;6.674;2023-06-10T14:21:21;39.10;24.20
33105;DHT22;19476;51.448;6.674;2023-06-10T14:23:47;39.10;24.10
33105;DHT22;19476;51.448;6.674;2023-06-10T14:26:14;39.10;23.90
33105;DHT22;19476;51.448;6.674;2023-06-10T14:28:41;39.10;24.10
33105;DHT22;19476;51.448;6.674;2023-06-10T14:31:07;39.10;24.00
33105;DHT22;19476;51.448;6.674;2023-06-10T14:33:33;39.20;24.40
33105;DHT22;19476;51.448;6.674;2023-06-10T14:35:59;39.10;24.10
33105;DHT22;19476;51.448;6.674;2023-06-10T14:38:25;39.10;24.00
33105;DHT22;19476;51.448;6.674;2023-06-10T14:40:51;39.10;24.00
33105;DHT22;19476;51.448;6.674;2023-06-10T14:43:18;39.10;23.90
33105;DHT22;19476;51.448;6.674;2023-06-10T14:45:43;39.00;23.80
33105;DHT22;19476;51.448;6.674;2023-06-10T14:48:12;38.90;23.80
33105;DHT22;19476;51.448;6.674;2023-06-10T14:50:38;38.70;23.90
33105;DHT22;19476;51.448;6.674;2023-06-10T14:53:06;38.60;23.70
33105;DHT22;19476;51.448;6.674;2023-06-10T14:55:32;38.40;23.70
33105;DHT22;19476;51.448;6.674;2023-06-10T14:57:58;38.20;23.80
33105;DHT22;19476;51.448;6.674;2023-06-10T15:00:24;38.00;24.10
33105;DHT22;19476;51.448;6.674;2023-06-10T15:02:51;37.70;24.00
33105;DHT22;19476;51.448;6.674;2023-06-10T15:05:17;37.60;24.30
33105;DHT22;19476;51.448;6.674;2023-06-10T15:07:44;37.50;24.40
33105;DHT22;19476;51.448;6.674;2023-06-10T15:10:10;37.40;24.50
33105;DHT22;19476;51.448;6.674;2023-06-10T15:12:36;37.50;24.60
33105;DHT22;19476;51.448;6.674;2023-06-10T15:15:03;37.60;24.70
33105;DHT22;19476;51.448;6.674;2023-06-10T15:17:29;37.60;24.60
33105;DHT22;19476;51.448;6.674;2023-06-10T15:19:55;37.70;24.60
33105;DHT22;19476;51.448;6.674;2023-06-10T15:22:21;37.70;24.60
33105;DHT22;19476;51.448;6.674;2023-06-10T15:24:47;37.70;24.60
33105;DHT22;19476;51.448;6.674;2023-06-10T15:27:13;37.70;24.40
33105;DHT22;19476;51.448;6.674;2023-06-10T15:29:39;37.80;24.60
33105;DHT22;19476;51.448;6.674;2023-06-10T15:32:05;37.90;24.60
33105;DHT22;19476;51.448;6.674;2023-06-10T15:34:31;37.90;24.60
33105;DHT22;19476;51.448;6.674;2023-06-10T15:36:57;37.90;24.60
33105;DHT22;19476;51.448;6.674;2023-06-10T15:39:23;37.90;24.50
33105;DHT22;19476;51.448;6.674;2023-06-10T15:41:50;37.70;24.50
33105;DHT22;19476;51.448;6.674;2023-06-10T15:44:16;37.60;24.50
33105;DHT22;19476;51.448;6.674;2023-06-10T15:46:42;37.60;24.60
33105;DHT22;19476;51.448;6.674;2023-06-10T15:49:08;37.50;24.70
33105;DHT22;19476;51.448;6.674;2023-06-10T15:51:34;37.40;24.70
33105;DHT22;19476;51.448;6.674;2023-06-10T15:54:00;37.30;24.70
33105;DHT22;19476;51.448;6.674;2023-06-10T15:56:26;37.20;24.90
33105;DHT22;19476;51.448;6.674;2023-06-10T15:58:52;37.10;25.00
33105;DHT22;19476;51.448;6.674;2023-06-10T16:01:18;37.20;25.10
33105;DHT22;19476;51.448;6.674;2023-06-10T16:03:44;37.10;25.10
33105;DHT22;19476;51.448;6.674;2023-06-10T16:06:11;37.10;25.20
33105;DHT22;19476;51.448;6.674;2023-06-10T16:08:36;37.10;25.40
33105;DHT22;19476;51.448;6.674;2023-06-10T16:11:03;37.20;25.10
33105;DHT22;19476;51.448;6.674;2023-06-10T16:13:29;37.20;25.10
33105;DHT22;19476;51.448;6.674;2023-06-10T16:15:56;37.30;25.10